»·PEaware :: N815M KBUR-KLAS

N815M :: KBUR-KLAS

FLIGHT INFORMATION

Flight Status: Arrived
Operator: Privately registered:
United States
More flights under this callsign
Pilot: Robert C. (30425)
Aircraft: BEECH AIRCRAFT DEBONAIR BONANZA
(BE33)
More flights by this aircraft type
Origin: KBUR Bob Hope-Burbank
United States
Destination: KLAS McCarran Intl
United States
More flights between these airports :: More routes between these airports
Route: +VNY3 DAG CRESO4
File this flight plan on PilotEdge
Remarks:
Altitude:
(Current/Filed)
11,500ft
Speed:
(Current/Filed)
165kts
Departed: 21-Sep-20 07:24 PM
Arrived: 21-Sep-20 08:58 PM
Distance/Time
Traveled:
194nm/1:34
Distance/Time
To Go:
Arrived

Flight Plot

Page will automatically refresh every two minutes.

Flight plan parsing failed; only flown route is shown


Map Options




Map Legend


Flown Route
Filed Route
Departure Airport
Arrival Airport
Navaid (VOR, NDB)
Fix

Horizontal Profiles

Position Reports

Time Latitude Longitude Heading Altitude Ground
Speed
21-Sep-20 19:03 34.196506 -118.368380 180 726ft 0kts
21-Sep-20 19:04 34.196506 -118.368380 180 726ft 0kts
21-Sep-20 19:05 34.196506 -118.368380 180 726ft 0kts
21-Sep-20 19:06 34.196506 -118.368380 180 726ft 0kts
21-Sep-20 19:07 34.196506 -118.368380 180 726ft 0kts
21-Sep-20 19:08 34.196506 -118.368380 180 726ft 0kts
21-Sep-20 19:09 34.196506 -118.368380 180 726ft 0kts
21-Sep-20 19:10 34.196506 -118.368380 180 726ft 0kts
21-Sep-20 19:11 34.196506 -118.368380 180 726ft 0kts
21-Sep-20 19:12 34.196506 -118.368380 180 726ft 0kts
21-Sep-20 19:13 34.196506 -118.368380 180 726ft 0kts
21-Sep-20 19:14 34.196506 -118.368380 180 726ft 0kts
21-Sep-20 19:15 34.196506 -118.368380 180 726ft 0kts
21-Sep-20 19:16 34.196506 -118.368380 180 726ft 0kts
21-Sep-20 19:17 34.196506 -118.368380 180 726ft 0kts
21-Sep-20 19:18 34.196506 -118.368380 180 726ft 0kts
21-Sep-20 19:19 34.196177 -118.368133 35 725ft 3kts
21-Sep-20 19:20 34.196918 -118.367152 273 724ft 8kts
21-Sep-20 19:21 34.197094 -118.368927 324 728ft 0kts
21-Sep-20 19:22 34.197887 -118.368874 79 730ft 3kts
21-Sep-20 19:23 34.197724 -118.349274 92 1018ft 94kts
21-Sep-20 19:24 34.180088 -118.345629 224 1914ft 90kts
21-Sep-20 19:25 34.164509 -118.367295 225 2844ft 84kts
21-Sep-20 19:26 34.145396 -118.393673 225 3721ft 109kts
21-Sep-20 19:27 34.122315 -118.425454 225 3996ft 144kts
21-Sep-20 19:28 34.094028 -118.463682 225 3987ft 157kts
21-Sep-20 19:29 34.086650 -118.511748 309 3979ft 167kts
21-Sep-20 19:30 34.123955 -118.520400 9 4869ft 125kts
21-Sep-20 19:31 34.155638 -118.514528 13 5751ft 114kts
21-Sep-20 19:32 34.187221 -118.508048 13 6553ft 116kts
21-Sep-20 19:33 34.220488 -118.505404 338 7292ft 127kts
21-Sep-20 19:34 34.226021 -118.540856 252 8009ft 123kts
21-Sep-20 19:35 34.235868 -118.578369 328 8683ft 134kts
21-Sep-20 19:36 34.270501 -118.597252 337 9290ft 137kts
21-Sep-20 19:37 34.306449 -118.606247 30 9873ft 132kts
21-Sep-20 19:38 34.329271 -118.574560 64 10461ft 123kts
21-Sep-20 19:39 34.346175 -118.539074 66 10978ft 125kts
21-Sep-20 19:40 34.365449 -118.497828 65 10996ft 152kts
21-Sep-20 19:41 34.388290 -118.452349 57 11002ft 163kts
21-Sep-20 19:42 34.416133 -118.407819 56 11011ft 166kts
21-Sep-20 19:43 34.444357 -118.362916 56 11015ft 168kts
21-Sep-20 19:44 34.472949 -118.317359 56 10984ft 169kts
21-Sep-20 19:45 34.501378 -118.272038 56 10986ft 168kts
21-Sep-20 19:46 34.529920 -118.226458 56 10986ft 169kts
21-Sep-20 19:47 34.558429 -118.180857 56 10985ft 169kts
21-Sep-20 19:48 34.586989 -118.135124 56 10984ft 170kts
21-Sep-20 19:49 34.615627 -118.089198 56 10982ft 170kts
21-Sep-20 19:51 34.633492 -118.038207 84 10980ft 164kts
21-Sep-20 19:52 34.640231 -117.983110 86 10977ft 164kts
21-Sep-20 19:53 34.646363 -117.927850 86 10973ft 164kts
21-Sep-20 19:54 34.652399 -117.872532 86 10969ft 164kts
21-Sep-20 19:55 34.658391 -117.817278 86 10963ft 165kts
21-Sep-20 19:56 34.665180 -117.761994 78 10970ft 166kts
21-Sep-20 19:57 34.678529 -117.708036 76 10977ft 166kts
21-Sep-20 19:58 34.692248 -117.654352 76 10988ft 166kts
21-Sep-20 19:59 34.706023 -117.600542 76 10999ft 166kts
21-Sep-20 20:00 34.719765 -117.546780 76 11000ft 166kts
21-Sep-20 20:01 34.733468 -117.493059 76 11000ft 166kts
21-Sep-20 20:02 34.747198 -117.439121 76 11000ft 166kts
21-Sep-20 20:03 34.760924 -117.385084 76 11000ft 166kts
21-Sep-20 20:04 34.774494 -117.331558 77 10997ft 166kts
21-Sep-20 20:05 34.788168 -117.277510 77 10987ft 167kts
21-Sep-20 20:05 34.799579 -117.232316 77 10976ft 167kts
21-Sep-20 20:07 34.815557 -117.168920 77 10955ft 167kts
21-Sep-20 20:08 34.829229 -117.114537 77 10933ft 168kts
21-Sep-20 20:08 34.840628 -117.068960 76 10921ft 168kts
21-Sep-20 20:10 34.856425 -117.005806 76 10964ft 168kts
21-Sep-20 20:11 34.870092 -116.951074 75 10957ft 169kts
21-Sep-20 20:11 34.881486 -116.905376 74 10955ft 169kts
21-Sep-20 20:12 34.895215 -116.850332 74 10954ft 169kts
21-Sep-20 20:13 34.908928 -116.795210 74 10955ft 169kts
21-Sep-20 20:14 34.922573 -116.740149 75 10955ft 170kts
21-Sep-20 20:15 34.936262 -116.684779 75 10955ft 170kts
21-Sep-20 20:16 34.949846 -116.629150 72 10983ft 170kts
21-Sep-20 20:17 34.965437 -116.573204 62 10991ft 176kts
21-Sep-20 20:18 34.988704 -116.519569 61 10989ft 179kts
21-Sep-20 20:19 35.012684 -116.465558 62 10994ft 181kts
21-Sep-20 20:20 35.036744 -116.411357 63 11000ft 181kts
21-Sep-20 20:21 35.060853 -116.356810 63 11002ft 182kts
21-Sep-20 20:22 35.085053 -116.302066 64 11001ft 182kts
21-Sep-20 20:23 35.109144 -116.247512 64 10998ft 181kts
21-Sep-20 20:24 35.133118 -116.193145 64 10998ft 181kts
21-Sep-20 20:25 35.157014 -116.138866 64 10998ft 181kts
21-Sep-20 20:26 35.180853 -116.084632 64 10998ft 181kts
21-Sep-20 20:27 35.204776 -116.030119 64 10998ft 181kts
21-Sep-20 20:28 35.228506 -115.975961 64 10998ft 181kts
21-Sep-20 20:29 35.252357 -115.921438 64 10999ft 181kts
21-Sep-20 20:30 35.275820 -115.867753 64 11001ft 176kts
21-Sep-20 20:31 35.298980 -115.814637 64 11006ft 175kts
21-Sep-20 20:32 35.327096 -115.765732 50 11010ft 177kts
21-Sep-20 20:33 35.360295 -115.721149 49 11014ft 176kts
21-Sep-20 20:34 35.393416 -115.676940 49 11017ft 175kts
21-Sep-20 20:35 35.426549 -115.632789 49 11018ft 175kts
21-Sep-20 20:36 35.459504 -115.588616 49 11018ft 175kts
21-Sep-20 20:37 35.492390 -115.544564 49 11018ft 175kts
21-Sep-20 20:38 35.525352 -115.500384 49 11018ft 175kts
21-Sep-20 20:39 35.558313 -115.456164 49 11018ft 175kts
21-Sep-20 20:40 35.591313 -115.411834 49 11019ft 175kts
21-Sep-20 20:41 35.627593 -115.369696 28 10675ft 192kts
21-Sep-20 20:42 35.676310 -115.336819 29 9584ft 195kts
21-Sep-20 20:43 35.725262 -115.304574 29 8506ft 199kts
21-Sep-20 20:44 35.773562 -115.273025 29 7481ft 191kts
21-Sep-20 20:45 35.818935 -115.243686 29 7009ft 169kts
21-Sep-20 20:46 35.857630 -115.219029 29 7014ft 146kts
21-Sep-20 20:47 35.893615 -115.198803 20 7022ft 142kts
21-Sep-20 20:48 35.932366 -115.182668 20 7020ft 151kts
21-Sep-20 20:49 35.972276 -115.166145 20 7017ft 151kts
21-Sep-20 20:50 36.010213 -115.150572 20 7023ft 151kts
21-Sep-20 20:51 36.048072 -115.134957 20 7010ft 152kts
21-Sep-20 20:52 36.089043 -115.117785 20 6543ft 177kts
21-Sep-20 20:53 36.131415 -115.102118 348 5497ft 142kts
21-Sep-20 20:54 36.134111 -115.131983 219 3777ft 121kts
21-Sep-20 20:55 36.113084 -115.148900 201 2559ft 98kts
21-Sep-20 20:56 36.091800 -115.160964 205 2113ft 46kts
21-Sep-20 20:57 36.091029 -115.163728 27 2124ft 34kts
21-Sep-20 20:58 36.094097 -115.162735 181 2112ft 0kts
21-Sep-20 20:59 36.094097 -115.162735 181 2112ft 0kts
21-Sep-20 21:00 36.094097 -115.162735 181 2112ft 0kts
21-Sep-20 21:01 36.094097 -115.162735 181 2112ft 0kts

Navigation Log

Ident Type
Flight plan parsing failed, navigation log unavailable